createdAt,value
2024-04-11T00:04:48.754Z,102133.00
2024-04-11T00:14:47.794Z,102135.00
2024-04-11T00:24:47.744Z,102141.00
2024-04-11T00:34:46.789Z,102141.00
2024-04-11T00:44:46.842Z,102147.00
2024-04-11T00:54:46.778Z,102153.00
2024-04-11T01:04:46.105Z,102151.00
2024-04-11T01:14:45.856Z,102149.00
2024-04-11T01:24:45.831Z,102145.00
2024-04-11T01:34:45.056Z,102137.00
2024-04-11T01:44:44.875Z,102135.00
2024-04-11T01:54:44.866Z,102135.00
2024-04-11T02:04:43.893Z,102139.00
2024-04-11T02:14:43.949Z,102143.00
2024-04-11T02:24:43.873Z,102149.00
2024-04-11T02:34:43.059Z,102149.00
2024-04-11T02:44:42.952Z,102149.00
2024-04-11T02:54:42.930Z,102147.00
2024-04-11T03:04:41.983Z,102141.00
2024-04-11T03:14:42.038Z,102137.00
2024-04-11T03:24:41.951Z,102137.00
2024-04-11T03:34:41.047Z,102145.00
2024-04-11T03:44:41.007Z,102151.00
2024-04-11T03:54:40.023Z,102157.00
2024-04-11T04:04:39.128Z,102151.00
2024-04-11T04:14:39.045Z,102143.00
2024-04-11T04:24:39.023Z,102135.00
2024-04-11T04:34:38.161Z,102133.00
2024-04-11T04:44:38.096Z,102137.00
2024-04-11T04:54:37.084Z,102123.00
2024-04-11T05:04:36.120Z,102122.00
2024-04-11T05:14:36.159Z,102120.00
2024-04-11T05:24:36.098Z,102122.00
2024-04-11T05:34:35.272Z,102123.00
2024-04-11T05:44:35.236Z,102129.00
2024-04-11T05:54:35.149Z,102131.00
2024-04-11T06:04:34.213Z,102129.00
2024-04-11T06:14:33.212Z,102133.00
2024-04-11T06:24:32.189Z,102139.00
2024-04-11T06:34:31.431Z,102151.00
2024-04-11T06:44:31.283Z,102161.00
2024-04-11T06:54:31.247Z,102174.00
2024-04-11T07:04:30.221Z,102180.00
2024-04-11T07:14:29.303Z,102194.00
2024-04-11T07:24:29.253Z,102206.00
2024-04-11T07:34:28.323Z,102223.00
2024-04-11T07:44:27.386Z,102223.00
2024-04-11T07:54:37.404Z,102223.00
2024-04-11T08:04:28.439Z,102212.00
2024-04-11T08:14:28.355Z,102219.00
2024-04-11T08:24:27.441Z,102235.00
2024-04-11T08:34:27.388Z,102243.00
2024-04-11T08:44:26.415Z,102251.00
2024-04-11T08:54:26.490Z,102261.00
2024-04-11T09:04:26.452Z,102267.00
2024-04-11T09:14:25.454Z,102270.00
2024-04-11T09:24:24.421Z,102278.00
2024-04-11T09:34:23.451Z,102286.00
2024-04-11T09:44:22.486Z,102294.00
2024-04-11T09:54:22.473Z,102298.00
2024-04-11T10:04:21.589Z,102290.00
2024-04-11T10:14:21.679Z,102288.00
2024-04-11T10:24:21.518Z,102292.00
2024-04-11T10:34:20.968Z,102294.00
2024-04-11T10:44:20.535Z,102292.00
2024-04-11T10:54:19.582Z,102298.00
2024-04-11T11:04:18.658Z,102302.00
2024-04-11T11:14:17.589Z,102306.00
2024-04-11T11:24:16.614Z,102312.00
2024-04-11T11:34:15.721Z,102315.00
2024-04-11T11:44:15.708Z,102319.00
2024-04-11T11:54:15.612Z,102321.00
2024-04-11T12:04:14.785Z,102321.00
2024-04-11T12:14:14.669Z,102321.00
2024-04-11T12:24:13.682Z,102323.00
2024-04-11T12:34:12.769Z,102331.00
2024-04-11T12:44:13.437Z,102335.00
2024-04-11T12:54:12.788Z,102335.00
2024-04-11T13:04:12.777Z,102335.00
2024-04-11T13:14:11.813Z,102337.00
2024-04-11T13:24:11.945Z,102335.00
2024-04-11T13:34:11.943Z,102329.00
2024-04-11T13:44:11.837Z,102325.00
2024-04-11T13:54:10.878Z,102321.00
2024-04-11T14:04:10.875Z,102323.00
2024-04-11T14:14:09.878Z,102325.00
2024-04-11T14:24:08.948Z,102312.00
2024-04-11T14:34:08.891Z,102296.00
2024-04-11T14:44:07.905Z,102292.00
2024-04-11T14:54:07.002Z,102292.00
2024-04-11T15:04:07.707Z,102288.00
2024-04-11T15:14:06.974Z,102286.00
2024-04-11T15:24:06.054Z,102284.00
2024-04-11T15:34:05.973Z,102280.00
2024-04-11T15:44:04.997Z,102278.00
2024-04-11T15:54:04.054Z,102276.00
2024-04-11T16:04:04.267Z,102270.00
2024-04-11T16:14:04.060Z,102268.00
2024-04-11T16:24:03.093Z,102267.00
2024-04-11T16:34:02.285Z,102270.00
2024-04-11T16:44:02.067Z,102268.00
2024-04-11T16:54:01.136Z,102268.00
2024-04-11T17:04:01.191Z,102267.00
2024-04-11T17:14:01.118Z,102259.00
2024-04-11T17:24:01.070Z,102255.00
2024-04-11T17:34:01.250Z,102249.00
2024-04-11T17:44:01.174Z,102255.00
2024-04-11T17:54:00.375Z,102268.00
2024-04-11T18:04:00.507Z,102280.00
2024-04-11T18:14:00.199Z,102296.00
2024-04-11T18:23:59.293Z,102304.00
2024-04-11T18:33:59.349Z,102310.00
2024-04-11T18:43:59.249Z,102306.00
2024-04-11T18:53:58.330Z,102306.00
2024-04-11T19:03:58.358Z,102321.00
2024-04-11T19:13:58.298Z,102331.00
2024-04-11T19:23:58.272Z,102333.00
2024-04-11T19:33:58.824Z,102348.00
2024-04-11T19:43:58.342Z,102348.00
2024-04-11T19:53:57.378Z,102348.00
2024-04-11T20:03:56.462Z,102346.00
2024-04-11T20:13:56.336Z,102348.00
2024-04-11T20:23:55.406Z,102352.00
2024-04-11T20:33:55.534Z,102346.00
2024-04-11T20:43:55.454Z,102346.00
2024-04-11T20:53:55.532Z,102348.00
2024-04-11T21:03:55.509Z,102346.00
2024-04-11T21:13:55.479Z,102329.00
2024-04-11T21:23:54.488Z,102327.00
2024-04-11T21:33:53.585Z,102327.00
2024-04-11T21:43:53.485Z,102327.00
2024-04-11T21:53:52.571Z,102333.00
2024-04-11T22:03:52.545Z,102335.00
2024-04-11T22:13:52.502Z,102346.00
2024-04-11T22:23:51.662Z,102350.00
2024-04-11T22:33:51.753Z,102356.00
2024-04-11T22:43:51.583Z,102356.00
2024-04-11T22:53:50.828Z,102365.00
2024-04-11T23:03:50.730Z,102363.00
2024-04-11T23:13:50.649Z,102367.00
2024-04-11T23:23:49.671Z,102371.00
2024-04-11T23:33:49.720Z,102371.00
2024-04-11T23:43:49.724Z,102367.00
2024-04-11T23:53:49.701Z,102367.00
